createdAt,value
2023-01-15T00:00:09.133Z,7.70
2023-01-15T00:02:38.707Z,7.70
2023-01-15T00:05:10.923Z,7.70
2023-01-15T00:07:39.252Z,7.70
2023-01-15T00:10:08.706Z,7.80
2023-01-15T00:12:37.256Z,7.70
2023-01-15T00:15:06.311Z,7.80
2023-01-15T00:17:42.791Z,7.80
2023-01-15T00:20:14.343Z,7.80
2023-01-15T00:22:48.075Z,8.00
2023-01-15T00:25:33.972Z,8.30
2023-01-15T00:28:02.315Z,8.60
2023-01-15T00:30:30.646Z,8.90
2023-01-15T00:33:00.117Z,9.10
2023-01-15T00:35:30.147Z,9.20
2023-01-15T00:37:58.430Z,9.40
2023-01-15T00:40:26.719Z,9.50
2023-01-15T00:42:55.355Z,9.60
2023-01-15T00:45:24.973Z,9.70
2023-01-15T00:47:53.897Z,9.70
2023-01-15T00:50:22.605Z,9.70
2023-01-15T00:53:00.172Z,9.70
2023-01-15T00:55:28.612Z,9.80
2023-01-15T00:57:56.888Z,9.90
2023-01-15T01:00:31.157Z,9.90
2023-01-15T01:02:59.677Z,10.10
2023-01-15T01:05:28.183Z,10.20
2023-01-15T01:07:56.330Z,10.20
2023-01-15T01:10:26.865Z,10.40
2023-01-15T01:12:56.529Z,10.40
2023-01-15T01:15:25.825Z,10.30
2023-01-15T01:17:54.189Z,10.30
2023-01-15T01:20:22.414Z,10.20
2023-01-15T01:22:51.861Z,10.20
2023-01-15T01:25:20.606Z,10.30
2023-01-15T01:27:50.705Z,10.20
2023-01-15T01:30:20.598Z,10.10
2023-01-15T01:32:49.095Z,10.10
2023-01-15T01:35:17.584Z,10.10
2023-01-15T01:37:51.064Z,10.10
2023-01-15T01:40:19.867Z,10.10
2023-01-15T01:42:49.795Z,10.10
2023-01-15T01:45:26.895Z,10.10
2023-01-15T01:47:59.292Z,10.20
2023-01-15T01:50:28.940Z,9.90
2023-01-15T01:53:01.758Z,9.90
2023-01-15T01:55:47.235Z,9.80
2023-01-15T01:58:25.919Z,9.40
2023-01-15T02:01:23.817Z,9.60
2023-01-15T02:03:52.637Z,9.40
2023-01-15T02:06:31.903Z,9.40
2023-01-15T02:09:01.470Z,9.30
2023-01-15T02:11:36.816Z,9.30
2023-01-15T02:14:24.065Z,9.20
2023-01-15T02:20:23.045Z,9.20
2023-01-15T02:23:03.961Z,9.20
2023-01-15T02:25:59.093Z,9.10
2023-01-15T02:28:51.196Z,9.20
2023-01-15T02:31:37.965Z,9.40
2023-01-15T02:34:18.329Z,9.10
2023-01-15T02:36:54.582Z,9.00
2023-01-15T02:39:40.111Z,9.00
2023-01-15T02:42:13.247Z,8.90
2023-01-15T02:44:47.162Z,8.80
2023-01-15T02:47:21.246Z,8.80
2023-01-15T02:50:23.582Z,8.80
2023-01-15T02:53:23.463Z,8.70
2023-01-15T02:55:56.467Z,8.70
2023-01-15T02:58:28.111Z,8.60
2023-01-15T03:01:27.024Z,8.60
2023-01-15T03:04:21.290Z,8.50
2023-01-15T03:06:53.355Z,8.50
2023-01-15T03:09:22.860Z,8.50
2023-01-15T03:11:59.322Z,8.40
2023-01-15T03:14:51.335Z,8.40
2023-01-15T03:20:45.592Z,8.40
2023-01-15T03:23:15.885Z,8.40
2023-01-15T03:25:52.280Z,8.40
2023-01-15T03:28:35.740Z,8.40
2023-01-15T03:31:18.416Z,8.30
2023-01-15T03:33:49.484Z,8.30
2023-01-15T03:36:18.373Z,8.20
2023-01-15T03:38:51.155Z,8.20
2023-01-15T03:41:27.758Z,8.10
2023-01-15T03:44:03.628Z,8.20
2023-01-15T03:46:46.572Z,8.30
2023-01-15T03:49:35.536Z,8.40
2023-01-15T03:52:09.348Z,8.60
2023-01-15T03:54:49.334Z,8.80
2023-01-15T03:57:25.300Z,8.90
2023-01-15T04:00:08.736Z,9.10
2023-01-15T04:02:52.980Z,9.00
2023-01-15T04:05:29.944Z,9.10
2023-01-15T04:08:40.792Z,9.20
2023-01-15T04:11:09.162Z,9.20
2023-01-15T04:13:37.624Z,9.30
2023-01-15T04:16:07.697Z,9.30
2023-01-15T04:18:36.531Z,9.20
2023-01-15T04:21:06.780Z,9.30
2023-01-15T04:23:35.183Z,9.30
2023-01-15T04:26:05.067Z,9.20
2023-01-15T04:28:34.130Z,9.20
2023-01-15T04:31:02.746Z,9.20
2023-01-15T04:33:31.635Z,9.20
2023-01-15T04:36:01.227Z,9.10
2023-01-15T04:38:32.120Z,9.10
2023-01-15T04:41:20.677Z,9.10
2023-01-15T04:44:06.671Z,9.10
2023-01-15T04:46:36.562Z,9.00
2023-01-15T04:49:05.741Z,9.00
2023-01-15T04:51:34.596Z,9.00
2023-01-15T04:54:06.560Z,8.90
2023-01-15T04:56:39.831Z,8.90
2023-01-15T04:59:09.466Z,8.90
2023-01-15T05:01:42.877Z,8.90
2023-01-15T05:04:21.186Z,8.90
2023-01-15T05:07:04.548Z,8.70
2023-01-15T05:09:35.393Z,9.00
2023-01-15T05:12:03.738Z,8.80
2023-01-15T05:14:33.711Z,8.80
2023-01-15T05:17:02.655Z,8.90
2023-01-15T05:19:31.362Z,9.00
2023-01-15T05:21:59.853Z,9.00
2023-01-15T05:24:28.337Z,9.00
2023-01-15T05:27:08.866Z,9.00
2023-01-15T05:29:37.897Z,8.90
2023-01-15T05:32:08.889Z,8.80
2023-01-15T05:34:38.501Z,8.80
2023-01-15T05:37:07.430Z,8.80
2023-01-15T05:39:36.371Z,8.90
2023-01-15T05:42:05.094Z,9.00
2023-01-15T05:44:35.616Z,9.10
2023-01-15T05:47:06.385Z,9.10
2023-01-15T05:49:40.098Z,9.10
2023-01-15T05:52:09.809Z,9.10
2023-01-15T05:54:38.275Z,8.90
2023-01-15T05:57:07.334Z,8.90
2023-01-15T05:59:39.216Z,8.80
2023-01-15T06:02:09.540Z,8.80
2023-01-15T06:04:38.057Z,8.70
2023-01-15T06:07:06.540Z,8.60
2023-01-15T06:09:34.882Z,8.60
2023-01-15T06:12:03.100Z,8.50
2023-01-15T06:14:31.447Z,8.50
2023-01-15T06:17:01.560Z,8.60
2023-01-15T06:19:33.347Z,8.40
2023-01-15T06:22:01.702Z,8.40
2023-01-15T06:24:32.950Z,8.40
2023-01-15T06:27:01.261Z,8.40
2023-01-15T06:29:35.504Z,8.30
2023-01-15T06:32:05.368Z,8.20
2023-01-15T06:34:33.857Z,8.20
2023-01-15T06:37:02.652Z,8.10
2023-01-15T06:39:31.160Z,8.00
2023-01-15T06:42:21.237Z,8.00
2023-01-15T06:45:07.202Z,7.90
2023-01-15T06:47:50.613Z,7.90
2023-01-15T06:50:21.392Z,7.90
2023-01-15T06:52:49.853Z,8.00
2023-01-15T06:55:18.701Z,7.90
2023-01-15T06:58:04.530Z,7.90
2023-01-15T07:00:56.210Z,7.90
2023-01-15T07:03:27.331Z,8.00
2023-01-15T07:06:00.506Z,7.80
2023-01-15T07:08:29.377Z,7.80
2023-01-15T07:10:57.767Z,7.90
2023-01-15T07:13:32.837Z,7.80
2023-01-15T07:16:02.502Z,7.80
2023-01-15T07:18:34.095Z,7.70
2023-01-15T07:21:03.637Z,7.70
2023-01-15T07:23:38.512Z,7.70
2023-01-15T07:26:07.241Z,7.70
2023-01-15T07:28:45.108Z,7.70
2023-01-15T07:31:14.739Z,7.70
2023-01-15T07:33:46.717Z,7.80
2023-01-15T07:36:24.659Z,7.70
2023-01-15T07:38:53.097Z,7.90
2023-01-15T07:41:38.364Z,7.80
2023-01-15T07:44:24.482Z,7.90
2023-01-15T07:47:10.125Z,7.90
2023-01-15T07:49:49.867Z,7.90
2023-01-15T07:52:25.107Z,7.80
2023-01-15T07:54:54.376Z,7.80
2023-01-15T07:57:24.713Z,7.90
2023-01-15T07:59:53.073Z,7.90
2023-01-15T08:02:22.781Z,7.90
2023-01-15T08:04:53.006Z,8.00
2023-01-15T08:07:21.702Z,7.80
2023-01-15T08:09:55.754Z,7.90
2023-01-15T08:12:41.973Z,7.90
2023-01-15T08:15:14.544Z,7.90
2023-01-15T08:17:45.991Z,7.90
2023-01-15T08:20:18.747Z,8.00
2023-01-15T08:22:48.757Z,8.00
2023-01-15T08:25:19.372Z,8.10
2023-01-15T08:27:49.438Z,8.10
2023-01-15T08:30:21.140Z,8.50
2023-01-15T08:32:50.282Z,8.50
2023-01-15T08:35:25.768Z,8.60
2023-01-15T08:37:56.203Z,8.60
2023-01-15T08:40:25.062Z,9.10
2023-01-15T08:42:55.167Z,9.50
2023-01-15T08:45:26.917Z,9.80
2023-01-15T08:47:58.618Z,10.00
2023-01-15T08:50:28.244Z,10.10
2023-01-15T08:53:02.490Z,10.00
2023-01-15T08:55:30.869Z,10.00
2023-01-15T08:57:59.224Z,10.10
2023-01-15T09:00:27.940Z,10.10
2023-01-15T09:03:02.712Z,10.10
2023-01-15T09:05:32.577Z,10.10
2023-01-15T09:08:00.550Z,10.00
2023-01-15T09:10:37.298Z,10.00
2023-01-15T09:13:06.547Z,9.90
2023-01-15T09:15:38.423Z,10.00
2023-01-15T09:18:07.054Z,9.80
2023-01-15T09:20:37.211Z,9.90
2023-01-15T09:23:05.399Z,9.80
2023-01-15T09:25:41.386Z,9.60
2023-01-15T09:28:10.835Z,9.60
2023-01-15T09:30:45.492Z,9.50
2023-01-15T09:33:21.456Z,9.30
2023-01-15T09:35:57.402Z,9.20
2023-01-15T09:38:25.722Z,9.10
2023-01-15T09:40:57.334Z,9.00
2023-01-15T09:43:50.457Z,8.90
2023-01-15T09:46:22.365Z,8.80
2023-01-15T09:49:04.364Z,8.70
2023-01-15T09:51:48.607Z,8.60
2023-01-15T09:54:26.937Z,8.40
2023-01-15T09:56:57.050Z,8.40
2023-01-15T09:59:34.960Z,8.20
2023-01-15T10:02:14.024Z,8.10
2023-01-15T10:04:46.844Z,8.00
2023-01-15T10:07:24.028Z,8.10
2023-01-15T10:10:04.045Z,7.80
2023-01-15T10:12:37.203Z,7.80
2023-01-15T10:15:22.771Z,7.70
2023-01-15T10:17:53.503Z,7.60
2023-01-15T10:20:55.446Z,7.50
2023-01-15T10:23:36.680Z,7.40
2023-01-15T10:26:18.065Z,7.30
2023-01-15T10:29:03.644Z,7.20
2023-01-15T10:32:02.299Z,7.20
2023-01-15T10:35:09.450Z,7.10
2023-01-15T10:37:44.838Z,7.00
2023-01-15T10:40:32.990Z,7.00
2023-01-15T10:43:06.706Z,7.10
2023-01-15T10:45:41.020Z,7.10
2023-01-15T10:48:17.370Z,6.60
2023-01-15T10:50:46.481Z,6.90
2023-01-15T10:53:22.540Z,7.00
2023-01-15T10:55:57.616Z,6.70
2023-01-15T10:58:37.403Z,6.60
2023-01-15T11:01:19.753Z,6.70
2023-01-15T11:03:51.324Z,6.50
2023-01-15T11:06:22.374Z,6.50
2023-01-15T11:09:11.247Z,6.40
2023-01-15T11:12:32.089Z,6.40
2023-01-15T11:15:19.768Z,6.30
2023-01-15T11:18:05.939Z,6.40
2023-01-15T11:20:37.053Z,6.40
2023-01-15T11:23:09.663Z,6.00
2023-01-15T11:25:39.618Z,5.90
2023-01-15T11:28:10.257Z,5.70
2023-01-15T11:30:42.030Z,5.70
2023-01-15T11:33:23.874Z,5.60
2023-01-15T11:35:57.745Z,5.50
2023-01-15T11:38:46.567Z,5.40
2023-01-15T11:41:45.932Z,5.40
2023-01-15T11:44:35.438Z,5.30
2023-01-15T11:47:21.578Z,5.60
2023-01-15T11:50:14.834Z,5.20
2023-01-15T11:52:47.851Z,5.10
2023-01-15T11:55:20.017Z,5.10
2023-01-15T11:57:59.225Z,5.00
2023-01-15T12:00:31.025Z,5.00
2023-01-15T12:03:08.446Z,4.90
2023-01-15T12:05:38.423Z,4.90
2023-01-15T12:08:21.336Z,4.80
2023-01-15T12:11:25.868Z,4.70
2023-01-15T12:14:09.286Z,4.60
2023-01-15T12:16:47.000Z,4.60
2023-01-15T12:19:26.435Z,4.60
2023-01-15T12:22:09.963Z,4.60
2023-01-15T12:25:14.735Z,4.50
2023-01-15T12:28:00.433Z,4.50
2023-01-15T12:30:41.145Z,4.50
2023-01-15T12:33:20.497Z,4.50
2023-01-15T12:36:02.686Z,4.40
2023-01-15T12:38:49.215Z,4.40
2023-01-15T12:41:25.168Z,4.40
2023-01-15T12:44:15.279Z,4.40
2023-01-15T12:46:45.720Z,4.40
2023-01-15T12:49:32.195Z,4.40
2023-01-15T12:52:07.160Z,4.40
2023-01-15T12:54:40.698Z,4.30
2023-01-15T12:57:16.931Z,4.30
2023-01-15T13:00:04.199Z,4.40
2023-01-15T13:02:40.233Z,4.30
2023-01-15T13:05:18.972Z,4.40
2023-01-15T13:07:54.602Z,4.30
2023-01-15T13:10:26.357Z,4.30
2023-01-15T13:12:57.145Z,4.30
2023-01-15T13:15:34.458Z,4.30
2023-01-15T13:18:12.911Z,4.20
2023-01-15T13:20:51.520Z,4.20
2023-01-15T13:23:33.690Z,4.20
2023-01-15T13:26:12.938Z,4.10
2023-01-15T13:28:53.464Z,4.10
2023-01-15T13:31:46.222Z,4.10
2023-01-15T13:34:30.695Z,4.10
2023-01-15T13:37:05.222Z,4.10
2023-01-15T13:39:43.203Z,4.10
2023-01-15T13:42:40.792Z,4.10
2023-01-15T13:45:27.942Z,4.10
2023-01-15T13:47:59.659Z,4.20
2023-01-15T13:50:32.573Z,4.20
2023-01-15T13:53:07.808Z,4.20
2023-01-15T13:55:39.272Z,4.30
2023-01-15T13:58:31.278Z,4.40
2023-01-15T14:01:23.835Z,4.30
2023-01-15T14:04:01.867Z,4.30
2023-01-15T14:06:52.330Z,4.30
2023-01-15T14:09:32.261Z,4.40
2023-01-15T14:12:18.017Z,4.40
2023-01-15T14:18:58.649Z,4.50
2023-01-15T14:21:41.126Z,4.50
2023-01-15T14:24:56.964Z,4.40
2023-01-15T14:27:49.703Z,4.40
2023-01-15T14:30:45.871Z,4.40
2023-01-15T14:33:32.803Z,4.40
2023-01-15T14:36:19.303Z,4.60
2023-01-15T14:38:55.763Z,4.50
2023-01-15T14:41:56.167Z,4.40
2023-01-15T14:45:21.326Z,4.50
2023-01-15T14:48:19.773Z,4.60
2023-01-15T14:50:50.388Z,4.50
2023-01-15T14:53:45.430Z,4.50
2023-01-15T14:56:22.686Z,4.50
2023-01-15T14:59:00.795Z,4.60
2023-01-15T15:01:39.523Z,4.60
2023-01-15T15:04:23.467Z,4.60
2023-01-15T15:06:58.208Z,4.50
2023-01-15T15:09:33.820Z,4.60
2023-01-15T15:12:22.215Z,4.60
2023-01-15T15:15:01.130Z,4.60
2023-01-15T15:17:38.884Z,4.60
2023-01-15T15:20:30.088Z,4.60
2023-01-15T15:23:06.658Z,4.70
2023-01-15T15:25:43.467Z,4.70
2023-01-15T15:28:14.416Z,4.70
2023-01-15T15:30:51.165Z,4.80
2023-01-15T15:33:38.904Z,4.70
2023-01-15T15:36:15.627Z,4.80
2023-01-15T15:38:55.065Z,4.70
2023-01-15T15:45:06.348Z,4.60
2023-01-15T15:47:59.385Z,4.60
2023-01-15T15:50:31.403Z,4.50
2023-01-15T15:53:04.682Z,4.40
2023-01-15T15:55:39.425Z,4.40
2023-01-15T15:58:11.448Z,4.40
2023-01-15T16:00:49.670Z,4.40
2023-01-15T16:03:34.798Z,4.30
2023-01-15T16:06:08.011Z,4.10
2023-01-15T16:08:42.154Z,4.10
2023-01-15T16:11:16.026Z,4.00
2023-01-15T16:14:02.474Z,3.80
2023-01-15T16:16:34.075Z,3.90
2023-01-15T16:19:16.166Z,3.70
2023-01-15T16:21:51.477Z,3.70
2023-01-15T16:24:30.352Z,3.70
2023-01-15T16:27:07.864Z,3.80
2023-01-15T16:29:54.253Z,3.70
2023-01-15T16:37:00.594Z,3.70
2023-01-15T16:39:32.909Z,3.60
2023-01-15T16:42:02.554Z,3.60
2023-01-15T16:44:42.879Z,3.60
2023-01-15T16:47:23.774Z,3.50
2023-01-15T16:49:55.747Z,3.40
2023-01-15T16:52:51.507Z,3.30
2023-01-15T16:55:39.296Z,3.20
2023-01-15T16:58:18.311Z,3.10
2023-01-15T17:00:49.292Z,3.10
2023-01-15T17:03:32.944Z,3.10
2023-01-15T17:06:14.194Z,3.00
2023-01-15T17:08:50.251Z,3.00
2023-01-15T17:11:24.296Z,2.90
2023-01-15T17:13:54.093Z,2.90
2023-01-15T17:16:26.000Z,2.80
2023-01-15T17:18:57.103Z,2.70
2023-01-15T17:22:37.396Z,2.60
2023-01-15T17:25:27.816Z,2.60
2023-01-15T17:28:09.595Z,2.60
2023-01-15T17:30:41.854Z,2.50
2023-01-15T17:33:18.703Z,2.40
2023-01-15T17:35:49.185Z,2.40
2023-01-15T17:38:23.088Z,2.40
2023-01-15T17:41:07.229Z,2.30
2023-01-15T17:43:44.725Z,2.20
2023-01-15T17:46:15.410Z,2.10
2023-01-15T17:49:01.332Z,2.00
2023-01-15T17:51:31.630Z,2.00
2023-01-15T17:54:02.162Z,2.00
2023-01-15T17:56:50.666Z,2.00
2023-01-15T17:59:42.937Z,2.00
2023-01-15T18:02:34.137Z,1.90
2023-01-15T18:05:35.337Z,1.90
2023-01-15T18:08:11.132Z,2.10
2023-01-15T18:10:41.674Z,2.00
2023-01-15T18:13:13.366Z,2.00
2023-01-15T18:15:47.615Z,2.10
2023-01-15T18:18:18.439Z,2.10
2023-01-15T18:20:47.933Z,2.20
2023-01-15T18:23:22.244Z,2.10
2023-01-15T18:25:55.927Z,2.10
2023-01-15T18:28:26.181Z,2.20
2023-01-15T18:30:56.831Z,2.50
2023-01-15T18:33:36.689Z,2.30
2023-01-15T18:36:10.177Z,2.30
2023-01-15T18:38:43.728Z,2.40
2023-01-15T18:41:37.236Z,2.40
2023-01-15T18:44:26.228Z,2.40
2023-01-15T18:46:59.399Z,2.40
2023-01-15T18:49:53.809Z,2.50
2023-01-15T18:52:46.629Z,2.40
2023-01-15T18:55:15.107Z,2.40
2023-01-15T18:57:44.701Z,2.30
2023-01-15T19:00:16.870Z,2.30
2023-01-15T19:02:51.680Z,2.40
2023-01-15T19:05:28.642Z,2.60
2023-01-15T19:07:57.420Z,2.50
2023-01-15T19:10:25.845Z,2.50
2023-01-15T19:12:54.387Z,2.50
2023-01-15T19:15:48.586Z,2.50
2023-01-15T19:18:35.428Z,2.50
2023-01-15T19:21:08.359Z,2.50
2023-01-15T19:23:42.089Z,2.60
2023-01-15T19:26:10.962Z,2.50
2023-01-15T19:28:44.192Z,2.40
2023-01-15T19:31:36.744Z,2.50
2023-01-15T19:34:32.087Z,2.30
2023-01-15T19:36:58.983Z,2.30
2023-01-15T19:39:34.160Z,2.30
2023-01-15T19:42:24.804Z,2.30
2023-01-15T19:45:10.994Z,2.10
2023-01-15T19:48:01.014Z,2.00
2023-01-15T19:50:41.556Z,1.80
2023-01-15T19:53:11.930Z,1.80
2023-01-15T19:55:43.642Z,1.90
2023-01-15T19:58:15.606Z,2.00
2023-01-15T20:00:48.408Z,2.00
2023-01-15T20:03:21.680Z,2.00
2023-01-15T20:05:51.233Z,2.10
2023-01-15T20:08:19.860Z,2.10
2023-01-15T20:10:50.853Z,2.00
2023-01-15T20:13:46.198Z,1.90
2023-01-15T20:16:24.649Z,2.30
2023-01-15T20:18:59.554Z,2.10
2023-01-15T20:21:29.489Z,2.10
2023-01-15T20:24:05.227Z,2.10
2023-01-15T20:26:41.864Z,2.20
2023-01-15T20:29:19.922Z,2.20
2023-01-15T20:31:48.427Z,2.20
2023-01-15T20:34:22.508Z,2.30
2023-01-15T20:37:02.184Z,2.50
2023-01-15T20:39:41.307Z,2.50
2023-01-15T20:42:38.851Z,2.50
2023-01-15T20:45:32.940Z,2.60
2023-01-15T20:48:24.858Z,2.60
2023-01-15T20:51:03.704Z,2.50
2023-01-15T20:53:35.039Z,2.60
2023-01-15T20:56:04.478Z,2.60
2023-01-15T20:58:40.931Z,2.60
2023-01-15T21:01:13.299Z,2.80
2023-01-15T21:03:43.620Z,2.80
2023-01-15T21:06:14.304Z,2.90
2023-01-15T21:08:56.879Z,2.90
2023-01-15T21:11:30.066Z,2.80
2023-01-15T21:14:00.510Z,2.70
2023-01-15T21:16:32.750Z,2.70
2023-01-15T21:19:04.702Z,2.60
2023-01-15T21:21:34.462Z,2.60
2023-01-15T21:24:09.085Z,2.50
2023-01-15T21:26:48.854Z,2.50
2023-01-15T21:29:28.262Z,2.50
2023-01-15T21:32:04.829Z,2.40
2023-01-15T21:34:34.572Z,2.40
2023-01-15T21:37:11.205Z,2.30
2023-01-15T21:39:45.478Z,2.20
2023-01-15T21:42:35.726Z,2.20
2023-01-15T21:45:04.867Z,2.20
2023-01-15T21:47:41.886Z,2.20
2023-01-15T21:50:11.574Z,2.30
2023-01-15T21:52:52.361Z,2.30
2023-01-15T21:55:31.114Z,2.30
2023-01-15T21:58:01.709Z,2.30
2023-01-15T22:00:31.543Z,2.40
2023-01-15T22:03:00.558Z,2.40
2023-01-15T22:05:29.276Z,2.50
2023-01-15T22:08:17.351Z,2.60
2023-01-15T22:10:45.927Z,2.80
2023-01-15T22:14:10.175Z,3.10
2023-01-15T22:17:07.939Z,3.10
2023-01-15T22:19:54.109Z,3.20
2023-01-15T22:22:34.528Z,3.30
2023-01-15T22:32:54.018Z,3.40
2023-01-15T22:39:31.398Z,3.40
2023-01-15T22:42:24.685Z,3.30
2023-01-15T22:45:04.284Z,3.30
2023-01-15T22:47:48.269Z,3.20
2023-01-15T22:50:19.719Z,3.30
2023-01-15T22:52:49.672Z,3.30
2023-01-15T22:55:19.065Z,3.30
2023-01-15T22:57:51.027Z,3.40
2023-01-15T23:00:20.929Z,3.40
2023-01-15T23:03:05.049Z,3.40
2023-01-15T23:05:36.480Z,3.40
2023-01-15T23:08:08.985Z,3.40
2023-01-15T23:10:49.424Z,3.50
2023-01-15T23:13:19.055Z,3.50
2023-01-15T23:15:47.455Z,3.60
2023-01-15T23:18:32.833Z,3.70
2023-01-15T23:21:06.471Z,3.60
2023-01-15T23:23:46.604Z,3.60
2023-01-15T23:26:20.328Z,3.70
2023-01-15T23:28:52.573Z,3.80
2023-01-15T23:31:22.292Z,3.80
2023-01-15T23:33:50.857Z,3.80
2023-01-15T23:36:21.625Z,3.90
2023-01-15T23:38:51.119Z,3.80
2023-01-15T23:41:45.124Z,3.90
2023-01-15T23:44:51.030Z,3.80
2023-01-15T23:47:19.455Z,3.80
2023-01-15T23:49:55.577Z,3.80
2023-01-15T23:52:24.288Z,3.80
2023-01-15T23:54:58.409Z,3.80
2023-01-15T23:57:28.946Z,3.90
2023-01-15T23:59:58.819Z,3.80
